Time;durP1;ratioP1;P1;durP2;ratioP2;P2;SDS_P1;SDS_P2;PMS_P1;PMS_P2;Temp;Humidity;BMP_temperature;BMP_pressure;BME280_temperature;BME280_humidity;BME280_pressure;Samples;Min_cycle;Max_cycle;Signal;HPM_P1;HPM_P2
2022/09/04 00:02:47;;;;;;;5.50;4.22;;;;;;;;;;5048584;28;20059;-68
2022/09/04 00:05:40;;;;;;;4.88;3.75;;;;;;;;;;5048637;28;20044;-69
2022/09/04 00:08:36;;;;;;;3.70;3.40;;;;;;;;;;5042844;28;20182;-68
2022/09/04 00:11:33;;;;;;;4.18;3.60;;;;;;;;;;5048362;28;20609;-68
2022/09/04 00:14:03;;;;;;;7.35;3.10;;;;;;;;;;5066356;28;20048;-68
2022/09/04 00:16:44;;;;;;;5.63;2.95;;;;;;;;;;5039291;28;20099;-68
2022/09/04 00:19:42;;;;;;;3.22;2.70;;;;;;;;;;5035140;28;20092;-68
2022/09/04 00:22:19;;;;;;;4.13;3.00;;;;;;;;;;5012968;28;20045;-68
2022/09/04 00:24:55;;;;;;;3.05;2.85;;;;;;;;;;5039472;28;20431;-68
2022/09/04 00:27:24;;;;;;;3.00;2.80;;;;;;;;;;5032380;28;20049;-68
2022/09/04 00:29:55;;;;;;;3.13;2.88;;;;;;;;;;5031535;28;20095;-68
2022/09/04 00:32:33;;;;;;;4.18;3.65;;;;;;;;;;5033258;28;20485;-68
2022/09/04 00:35:21;;;;;;;4.60;3.33;;;;;;;;;;5035979;28;20049;-68
2022/09/04 00:38:21;;;;;;;3.50;3.20;;;;;;;;;;5014909;28;20421;-68
2022/09/04 00:40:56;;;;;;;3.70;3.17;;;;;;;;;;5006273;28;20045;-68
2022/09/04 00:43:52;;;;;;;3.10;2.83;;;;;;;;;;5031020;28;20056;-69
2022/09/04 00:46:39;;;;;;;3.47;3.00;;;;;;;;;;5032255;28;20124;-68
2022/09/04 00:49:18;;;;;;;6.18;3.65;;;;;;;;;;5014863;28;20072;-68
2022/09/04 00:52:15;;;;;;;4.22;3.83;;;;;;;;;;5082590;28;20053;-68
2022/09/04 00:55:06;;;;;;;5.00;4.43;;;;;;;;;;5051194;28;20049;-68
2022/09/04 00:57:58;;;;;;;5.28;3.60;;;;;;;;;;5044887;28;20680;-68
2022/09/04 01:00:26;;;;;;;3.75;3.35;;;;;;;;;;5052106;28;20059;-68
2022/09/04 01:03:19;;;;;;;3.50;3.20;;;;;;;;;;5051916;28;20056;-68
2022/09/04 01:05:54;;;;;;;7.82;3.28;;;;;;;;;;5064570;28;20065;-68
2022/09/04 01:08:45;;;;;;;2.95;2.75;;;;;;;;;;5034235;28;20059;-68
2022/09/04 01:11:32;;;;;;;5.03;3.30;;;;;;;;;;5051893;28;20111;-68
2022/09/04 01:14:11;;;;;;;3.88;3.15;;;;;;;;;;5069642;28;20044;-68
2022/09/04 01:16:44;;;;;;;3.15;2.80;;;;;;;;;;5049611;28;20049;-68
2022/09/04 01:19:31;;;;;;;3.53;2.83;;;;;;;;;;5032914;28;20056;-68
2022/09/04 01:22:41;;;;;;;3.38;2.95;;;;;;;;;;5047160;28;20103;-68
2022/09/04 01:25:09;;;;;;;4.13;3.05;;;;;;;;;;4989720;28;20057;-68
2022/09/04 01:27:57;;;;;;;3.95;2.75;;;;;;;;;;4987948;28;20493;-68
2022/09/04 01:30:23;;;;;;;4.97;2.78;;;;;;;;;;5011286;28;20558;-68
2022/09/04 01:33:06;;;;;;;6.43;3.47;;;;;;;;;;5044411;28;20052;-68
2022/09/04 01:35:43;;;;;;;2.97;2.65;;;;;;;;;;5050834;28;20400;-68
2022/09/04 01:38:13;;;;;;;10.10;2.97;;;;;;;;;;5050918;28;20132;-68
2022/09/04 01:40:47;;;;;;;5.85;3.15;;;;;;;;;;5051171;28;20065;-67
2022/09/04 01:43:17;;;;;;;3.63;3.17;;;;;;;;;;5050385;28;20068;-69
2022/09/04 01:46:00;;;;;;;3.75;2.95;;;;;;;;;;5051028;28;20511;-67
2022/09/04 01:48:38;;;;;;;3.78;2.90;;;;;;;;;;5051117;28;20500;-67
2022/09/04 01:51:29;;;;;;;3.00;2.70;;;;;;;;;;5050139;28;20041;-68
2022/09/04 01:54:13;;;;;;;2.92;2.70;;;;;;;;;;5025157;28;20412;-68
2022/09/04 01:56:47;;;;;;;3.30;3.10;;;;;;;;;;5051114;28;20136;-68
2022/09/04 01:59:29;;;;;;;3.35;3.05;;;;;;;;;;5050468;28;20045;-70
2022/09/04 02:02:05;;;;;;;3.10;2.90;;;;;;;;;;5032088;28;20053;-68
2022/09/04 02:04:47;;;;;;;3.80;3.08;;;;;;;;;;5050757;28;20448;-67
2022/09/04 02:07:15;;;;;;;2.85;2.65;;;;;;;;;;5050280;28;20055;-69
2022/09/04 02:10:12;;;;;;;3.20;3.00;;;;;;;;;;5050617;28;20094;-68
2022/09/04 02:12:52;;;;;;;4.70;3.50;;;;;;;;;;5049687;28;20094;-68
2022/09/04 02:15:30;;;;;;;4.10;3.42;;;;;;;;;;5049692;28;20085;-69
2022/09/04 02:18:01;;;;;;;5.32;3.33;;;;;;;;;;5050600;28;20053;-68
2022/09/04 02:20:29;;;;;;;8.15;4.22;;;;;;;;;;5032619;28;20049;-68
2022/09/04 02:22:57;;;;;;;5.93;3.70;;;;;;;;;;5055572;28;20044;-68
2022/09/04 02:25:34;;;;;;;4.57;3.25;;;;;;;;;;5049604;28;20037;-68
2022/09/04 02:28:26;;;;;;;4.95;3.80;;;;;;;;;;5050506;28;20552;-68
2022/09/04 02:31:17;;;;;;;6.38;4.55;;;;;;;;;;5049644;28;20071;-68
2022/09/04 02:33:49;;;;;;;6.20;3.20;;;;;;;;;;5044876;28;20044;-68
2022/09/04 02:37:09;;;;;;;4.88;3.15;;;;;;;;;;5041452;28;20651;-68
2022/09/04 02:39:55;;;;;;;7.95;3.50;;;;;;;;;;4986243;28;20434;-68
2022/09/04 02:42:35;;;;;;;5.15;3.40;;;;;;;;;;5069755;28;20055;-68
2022/09/04 02:45:06;;;;;;;3.83;3.53;;;;;;;;;;5062493;28;20051;-69
2022/09/04 02:47:47;;;;;;;4.15;3.75;;;;;;;;;;5023714;28;22190;-69
2022/09/04 02:50:40;;;;;;;4.23;3.73;;;;;;;;;;5030023;28;20076;-68
2022/09/04 02:53:19;;;;;;;3.78;3.42;;;;;;;;;;5029694;28;20494;-68
2022/09/04 02:55:55;;;;;;;3.50;3.20;;;;;;;;;;5027595;28;20106;-68
2022/09/04 02:58:35;;;;;;;6.80;3.50;;;;;;;;;;5021792;28;20045;-68
2022/09/04 03:01:06;;;;;;;3.63;3.33;;;;;;;;;;5029915;28;20414;-68
2022/09/04 03:03:45;;;;;;;4.35;3.20;;;;;;;;;;5029191;28;20049;-68
2022/09/04 03:06:18;;;;;;;8.10;3.67;;;;;;;;;;5029103;28;20103;-68
2022/09/04 03:08:56;;;;;;;4.43;3.50;;;;;;;;;;5029564;28;20136;-68
2022/09/04 03:11:34;;;;;;;5.60;3.20;;;;;;;;;;5029336;28;20053;-68
2022/09/04 03:14:12;;;;;;;9.55;3.38;;;;;;;;;;5029532;28;20516;-68
2022/09/04 03:16:54;;;;;;;3.30;3.05;;;;;;;;;;5029765;28;20056;-68
2022/09/04 03:19:27;;;;;;;;;;;;;;;;;;5028764;28;20476;-68
2022/09/04 03:22:32;;;;;;;3.70;2.90;;;;;;;;;;5010959;28;19921;-68
2022/09/04 03:25:25;;;;;;;3.55;3.00;;;;;;;;;;5029369;28;20053;-68
2022/09/04 03:27:50;;;;;;;6.93;3.63;;;;;;;;;;5027301;28;20061;-67
2022/09/04 03:30:16;;;;;;;5.78;3.42;;;;;;;;;;5027177;28;20447;-68
2022/09/04 03:33:04;;;;;;;11.98;3.30;;;;;;;;;;5009280;28;20432;-67
2022/09/04 03:35:41;;;;;;;7.55;4.00;;;;;;;;;;5033330;28;20049;-67
2022/09/04 03:38:17;;;;;;;4.60;3.15;;;;;;;;;;5069496;28;20411;-68
2022/09/04 03:41:04;;;;;;;5.68;3.42;;;;;;;;;;5042603;28;20037;-68
2022/09/04 03:44:03;;;;;;;5.32;3.20;;;;;;;;;;5023826;28;20068;-68
2022/09/04 03:46:43;;;;;;;2.95;2.75;;;;;;;;;;5081010;22;20053;-69
2022/09/04 03:49:50;;;;;;;6.35;3.25;;;;;;;;;;5069486;28;20049;-70
2022/09/04 03:52:35;;;;;;;4.57;3.30;;;;;;;;;;4983823;28;20422;-70
2022/09/04 03:55:32;;;;;;;3.92;3.55;;;;;;;;;;4985044;28;20046;-70
2022/09/04 03:58:04;;;;;;;4.15;3.65;;;;;;;;;;5065692;28;20081;-70
2022/09/04 04:00:56;;;;;;;4.45;3.70;;;;;;;;;;5088650;28;20575;-69
2022/09/04 04:03:30;;;;;;;4.43;4.00;;;;;;;;;;5074595;27;20060;-69
2022/09/04 04:06:11;;;;;;;3.97;3.58;;;;;;;;;;5093290;27;20044;-68
2022/09/04 04:09:31;;;;;;;5.50;3.63;;;;;;;;;;5092509;27;20059;-69
2022/09/04 04:12:26;;;;;;;7.82;3.63;;;;;;;;;;5075136;28;20039;-68
2022/09/04 04:15:28;;;;;;;4.05;3.47;;;;;;;;;;5085547;27;20069;-69
2022/09/04 04:18:31;;;;;;;4.95;3.67;;;;;;;;;;5086156;28;20087;-69
2022/09/04 04:21:12;;;;;;;4.22;3.63;;;;;;;;;;5072851;28;20044;-69
2022/09/04 04:24:05;;;;;;;5.80;3.08;;;;;;;;;;5071453;28;20048;-69
2022/09/04 04:26:39;;;;;;;5.55;3.30;;;;;;;;;;5079307;28;20048;-70
2022/09/04 04:29:39;;;;;;;3.65;3.33;;;;;;;;;;5093026;28;20063;-69
2022/09/04 04:32:23;;;;;;;3.75;3.35;;;;;;;;;;5067447;28;20060;-69
2022/09/04 04:35:09;;;;;;;3.80;3.50;;;;;;;;;;5050272;28;20041;-70
2022/09/04 04:38:05;;;;;;;4.63;3.30;;;;;;;;;;5064091;28;20040;-69
2022/09/04 04:40:45;;;;;;;3.20;2.90;;;;;;;;;;5072538;28;20053;-70
2022/09/04 04:43:34;;;;;;;4.63;3.13;;;;;;;;;;5072223;28;20044;-69
2022/09/04 04:46:14;;;;;;;6.00;3.30;;;;;;;;;;5039902;28;20111;-68
2022/09/04 04:49:03;;;;;;;3.55;2.95;;;;;;;;;;5064036;28;20051;-68
2022/09/04 04:51:40;;;;;;;3.25;2.90;;;;;;;;;;5071686;28;20082;-69
2022/09/04 04:54:27;;;;;;;3.35;2.72;;;;;;;;;;5072120;28;20059;-70
2022/09/04 04:57:04;;;;;;;3.25;2.95;;;;;;;;;;5065130;28;20405;-69
2022/09/04 04:59:29;;;;;;;6.40;3.30;;;;;;;;;;5057959;28;20039;-70
2022/09/04 05:02:06;;;;;;;5.57;2.80;;;;;;;;;;5056861;28;20048;-69
2022/09/04 05:04:48;;;;;;;2.95;2.65;;;;;;;;;;5051254;28;20044;-70
2022/09/04 05:07:51;;;;;;;3.05;2.75;;;;;;;;;;5051236;28;20041;-69
2022/09/04 05:10:22;;;;;;;3.90;2.80;;;;;;;;;;5069439;28;20036;-69
2022/09/04 05:13:06;;;;;;;3.15;2.90;;;;;;;;;;5071795;28;20132;-69
2022/09/04 05:15:54;;;;;;;4.38;3.20;;;;;;;;;;5067028;28;20041;-69
2022/09/04 05:18:30;;;;;;;4.20;3.17;;;;;;;;;;5060342;28;20102;-70
2022/09/04 05:21:04;;;;;;;3.40;3.05;;;;;;;;;;5088681;28;20048;-70
2022/09/04 05:23:42;;;;;;;3.88;3.17;;;;;;;;;;5091182;28;20048;-71
2022/09/04 05:26:26;;;;;;;7.15;2.70;;;;;;;;;;5091836;28;20052;-69
2022/09/04 05:29:06;;;;;;;5.05;2.80;;;;;;;;;;5090586;28;20397;-69
2022/09/04 05:31:57;;;;;;;3.22;2.92;;;;;;;;;;5077209;28;20040;-70
2022/09/04 05:34:53;;;;;;;2.85;2.60;;;;;;;;;;5051245;28;20068;-71
2022/09/04 05:37:26;;;;;;;6.95;3.35;;;;;;;;;;5049937;28;20060;-70
2022/09/04 05:40:10;;;;;;;3.55;2.67;;;;;;;;;;5051634;28;20045;-70
2022/09/04 05:43:11;;;;;;;2.80;2.55;;;;;;;;;;5123798;27;20480;-70
2022/09/04 05:46:08;;;;;;;4.05;3.33;;;;;;;;;;5065055;28;20535;-70
2022/09/04 05:48:41;;;;;;;4.50;2.60;;;;;;;;;;5071286;28;20051;-69
2022/09/04 05:51:28;;;;;;;3.40;2.63;;;;;;;;;;5070629;28;20033;-69
2022/09/04 05:54:21;;;;;;;3.28;2.97;;;;;;;;;;5079759;28;20040;-69
2022/09/04 05:57:03;;;;;;;4.95;2.90;;;;;;;;;;5044181;28;20048;-69
2022/09/04 05:59:50;;;;;;;7.23;2.90;;;;;;;;;;5050771;28;20040;-69
2022/09/04 06:02:52;;;;;;;3.60;2.33;;;;;;;;;;5052029;28;20051;-68
2022/09/04 06:05:25;;;;;;;3.30;2.40;;;;;;;;;;5090263;28;20123;-69
2022/09/04 06:07:59;;;;;;;5.47;2.80;;;;;;;;;;5091609;28;20048;-69
2022/09/04 06:10:47;;;;;;;2.40;2.20;;;;;;;;;;5091457;28;20070;-68
2022/09/04 06:13:26;;;;;;;2.88;2.67;;;;;;;;;;5089374;28;20081;-69
2022/09/04 06:16:19;;;;;;;2.67;2.38;;;;;;;;;;5060760;28;20136;-68
2022/09/04 06:19:10;;;;;;;2.78;2.50;;;;;;;;;;5043649;28;20071;-68
2022/09/04 06:21:44;;;;;;;2.40;2.20;;;;;;;;;;5050895;28;20124;-69
2022/09/04 06:24:28;;;;;;;4.35;2.30;;;;;;;;;;5067832;28;20534;-70
2022/09/04 06:26:59;;;;;;;5.32;3.25;;;;;;;;;;5069929;28;20058;-70
2022/09/04 06:29:37;;;;;;;2.65;2.45;;;;;;;;;;5068802;28;20044;-70
2022/09/04 06:32:43;;;;;;;2.88;2.60;;;;;;;;;;5070850;28;20059;-71
2022/09/04 06:35:22;;;;;;;4.10;3.00;;;;;;;;;;5049459;28;20059;-71
2022/09/04 06:38:06;;;;;;;3.55;2.17;;;;;;;;;;5045976;28;20039;-71
2022/09/04 06:41:09;;;;;;;2.40;2.20;;;;;;;;;;5073064;28;20052;-71
2022/09/04 06:43:40;;;;;;;2.20;2.10;;;;;;;;;;5065567;28;20048;-71
2022/09/04 06:46:32;;;;;;;2.67;1.77;;;;;;;;;;5060684;28;20061;-71
2022/09/04 06:49:09;;;;;;;1.83;1.73;;;;;;;;;;5078419;28;20043;-70
2022/09/04 06:52:35;;;;;;;1.77;1.40;;;;;;;;;;5088215;28;20100;-71
2022/09/04 06:55:19;;;;;;;1.60;1.50;;;;;;;;;;5037594;28;20521;-71
2022/09/04 06:58:09;;;;;;;3.40;1.45;;;;;;;;;;5083254;28;20491;-71
2022/09/04 07:00:52;;;;;;;1.77;1.67;;;;;;;;;;5068860;28;20666;-70
2022/09/04 07:03:29;;;;;;;3.63;1.63;;;;;;;;;;5049860;28;20092;-71
2022/09/04 07:06:01;;;;;;;1.50;1.40;;;;;;;;;;5078351;28;20041;-71
2022/09/04 07:08:44;;;;;;;2.67;1.70;;;;;;;;;;5063701;28;20045;-71
2022/09/04 07:11:15;;;;;;;3.00;1.40;;;;;;;;;;5079514;28;20566;-70
2022/09/04 07:14:03;;;;;;;1.50;1.40;;;;;;;;;;5070589;28;20052;-71
2022/09/04 07:16:35;;;;;;;2.17;1.35;;;;;;;;;;5057375;28;20048;-71
2022/09/04 07:19:31;;;;;;;2.08;1.42;;;;;;;;;;5065357;28;20043;-71
2022/09/04 07:22:16;;;;;;;2.08;1.50;;;;;;;;;;5080028;28;20500;-70
2022/09/04 07:24:44;;;;;;;2.72;1.40;;;;;;;;;;5085941;28;20675;-70
2022/09/04 07:27:28;;;;;;;2.95;1.48;;;;;;;;;;5085676;28;20044;-70
2022/09/04 07:30:00;;;;;;;1.40;1.30;;;;;;;;;;5082675;28;20056;-71
2022/09/04 07:32:39;;;;;;;1.70;1.58;;;;;;;;;;5078401;28;20055;-70
2022/09/04 07:35:16;;;;;;;5.45;1.70;;;;;;;;;;5077303;28;20047;-70
2022/09/04 07:37:45;;;;;;;3.42;1.50;;;;;;;;;;5047761;28;20519;-71
2022/09/04 07:40:36;;;;;;;1.75;1.45;;;;;;;;;;5047373;28;20053;-71
2022/09/04 07:43:07;;;;;;;2.60;1.58;;;;;;;;;;5060255;28;20079;-70
2022/09/04 07:45:50;;;;;;;2.50;1.70;;;;;;;;;;5078408;28;20040;-70
2022/09/04 07:48:29;;;;;;;2.25;1.50;;;;;;;;;;5060496;28;20033;-71
2022/09/04 07:51:09;;;;;;;4.38;1.50;;;;;;;;;;5062979;28;20114;-71
2022/09/04 07:54:03;;;;;;;2.78;1.40;;;;;;;;;;5079200;28;20136;-71
2022/09/04 07:56:53;;;;;;;1.70;1.38;;;;;;;;;;5066562;28;20044;-69
2022/09/04 07:59:21;;;;;;;3.22;1.75;;;;;;;;;;5065749;28;20063;-69
2022/09/04 08:02:05;;;;;;;3.38;1.73;;;;;;;;;;5061673;28;20055;-69
2022/09/04 08:04:55;;;;;;;1.80;1.70;;;;;;;;;;5064414;28;20043;-70
2022/09/04 08:07:33;;;;;;;1.70;1.30;;;;;;;;;;5065970;28;20835;-70
2022/09/04 08:10:31;;;;;;;2.00;1.83;;;;;;;;;;5064606;28;20136;-69
2022/09/04 08:13:25;;;;;;;1.50;1.30;;;;;;;;;;5079350;28;20071;-69
2022/09/04 08:16:12;;;;;;;2.38;1.55;;;;;;;;;;5012232;28;20479;-68
2022/09/04 08:18:52;;;;;;;1.40;1.30;;;;;;;;;;5067142;28;20045;-68
2022/09/04 08:21:20;;;;;;;4.28;1.33;;;;;;;;;;5064328;28;20048;-68
2022/09/04 08:24:13;;;;;;;4.50;1.27;;;;;;;;;;5068667;28;20452;-68
2022/09/04 08:26:50;;;;;;;1.48;1.30;;;;;;;;;;5080391;28;20122;-69
2022/09/04 08:29:30;;;;;;;4.63;1.23;;;;;;;;;;5087585;28;20072;-69
2022/09/04 08:32:17;;;;;;;5.63;1.30;;;;;;;;;;5056997;28;20049;-69
2022/09/04 08:34:51;;;;;;;1.77;1.20;;;;;;;;;;5048660;28;20128;-69
2022/09/04 08:37:51;;;;;;;1.10;1.00;;;;;;;;;;5060386;28;20047;-70
2022/09/04 08:40:24;;;;;;;3.50;1.30;;;;;;;;;;5084041;28;20189;-69
2022/09/04 08:43:08;;;;;;;5.97;1.92;;;;;;;;;;5070688;28;20048;-68
2022/09/04 08:45:42;;;;;;;3.90;1.20;;;;;;;;;;5085181;28;20040;-69
2022/09/04 08:48:31;;;;;;;1.13;1.00;;;;;;;;;;5070261;28;20074;-68
2022/09/04 08:51:29;;;;;;;1.33;1.20;;;;;;;;;;5082628;28;20458;-68
2022/09/04 08:54:13;;;;;;;4.65;1.30;;;;;;;;;;5019041;28;20052;-68
2022/09/04 08:57:21;;;;;;;1.27;1.20;;;;;;;;;;5049662;28;20116;-69
2022/09/04 09:00:11;;;;;;;3.72;1.38;;;;;;;;;;5070207;28;20068;-69
2022/09/04 09:02:49;;;;;;;2.35;1.50;;;;;;;;;;5083852;28;20044;-68
2022/09/04 09:05:45;;;;;;;1.27;1.17;;;;;;;;;;5090048;28;20085;-69
2022/09/04 09:08:22;;;;;;;1.73;1.30;;;;;;;;;;5087449;28;20044;-69
2022/09/04 09:10:54;;;;;;;3.78;1.33;;;;;;;;;;5082679;28;20237;-69
2022/09/04 09:13:37;;;;;;;1.60;1.50;;;;;;;;;;5062057;28;20564;-69
2022/09/04 09:16:17;;;;;;;1.45;1.33;;;;;;;;;;5068290;28;20054;-69
2022/09/04 09:19:04;;;;;;;2.63;1.40;;;;;;;;;;5068918;28;20071;-68
2022/09/04 09:21:48;;;;;;;2.45;1.27;;;;;;;;;;5064426;28;20041;-69
2022/09/04 09:24:32;;;;;;;1.50;1.40;;;;;;;;;;5073811;28;20067;-70
2022/09/04 09:27:26;;;;;;;1.63;1.40;;;;;;;;;;5064860;28;20036;-70
2022/09/04 09:30:06;;;;;;;2.88;1.30;;;;;;;;;;5068014;28;20140;-69
2022/09/04 09:32:51;;;;;;;1.40;1.30;;;;;;;;;;5066510;28;20056;-69
2022/09/04 09:35:28;;;;;;;1.60;1.33;;;;;;;;;;5072491;28;20059;-71
2022/09/04 09:38:25;;;;;;;1.30;1.20;;;;;;;;;;5071333;28;20473;-68
2022/09/04 09:41:15;;;;;;;1.92;1.58;;;;;;;;;;5068426;28;20522;-70
2022/09/04 09:43:55;;;;;;;3.78;1.35;;;;;;;;;;5060379;28;20447;-68
2022/09/04 09:47:00;;;;;;;2.20;1.50;;;;;;;;;;5067352;28;20058;-69
2022/09/04 09:49:44;;;;;;;1.65;1.55;;;;;;;;;;5066991;28;20037;-69
2022/09/04 09:52:35;;;;;;;1.40;1.30;;;;;;;;;;5068959;28;20044;-69
2022/09/04 09:55:28;;;;;;;4.60;1.55;;;;;;;;;;5068879;28;20048;-69
2022/09/04 09:58:03;;;;;;;2.60;1.40;;;;;;;;;;5065177;28;20044;-70
2022/09/04 10:00:58;;;;;;;4.63;1.45;;;;;;;;;;5069564;28;20159;-69
2022/09/04 10:03:48;;;;;;;1.70;1.20;;;;;;;;;;5052335;28;20059;-69
2022/09/04 10:06:26;;;;;;;3.67;1.55;;;;;;;;;;5061607;28;20052;-70
2022/09/04 10:09:21;;;;;;;2.92;1.27;;;;;;;;;;5066799;28;20441;-69
2022/09/04 10:12:09;;;;;;;2.70;1.38;;;;;;;;;;5067721;28;20056;-69
2022/09/04 10:15:05;;;;;;;4.38;1.10;;;;;;;;;;5068358;28;20040;-69
2022/09/04 10:18:07;;;;;;;1.15;1.10;;;;;;;;;;5082744;28;20048;-69
2022/09/04 10:20:58;;;;;;;2.95;1.27;;;;;;;;;;5049019;28;20045;-69
2022/09/04 10:23:29;;;;;;;2.20;1.10;;;;;;;;;;5049868;28;20049;-69
2022/09/04 10:26:13;;;;;;;1.20;1.20;;;;;;;;;;5050060;28;20119;-69
2022/09/04 10:29:08;;;;;;;1.25;1.15;;;;;;;;;;5065755;28;20052;-69
2022/09/04 10:31:49;;;;;;;1.60;1.20;;;;;;;;;;5065214;28;20052;-70
2022/09/04 10:34:49;;;;;;;1.20;1.10;;;;;;;;;;5063849;28;20489;-70
2022/09/04 10:37:29;;;;;;;2.17;1.05;;;;;;;;;;5068229;28;20044;-70
2022/09/04 10:43:32;;;;;;;1.60;0.90;;;;;;;;;;5048389;28;20128;-70
2022/09/04 10:46:07;;;;;;;1.05;0.90;;;;;;;;;;5044372;28;20037;-70
2022/09/04 10:48:57;;;;;;;1.25;1.15;;;;;;;;;;5052220;28;20049;-71
2022/09/04 10:51:33;;;;;;;1.23;1.00;;;;;;;;;;5071768;28;20411;-71
2022/09/04 10:54:17;;;;;;;1.52;1.13;;;;;;;;;;5087054;28;20062;-69
2022/09/04 10:56:46;;;;;;;1.42;1.30;;;;;;;;;;5088759;28;20062;-69
2022/09/04 10:59:29;;;;;;;1.33;1.20;;;;;;;;;;5086538;28;20040;-72
2022/09/04 11:02:23;;;;;;;0.98;0.98;;;;;;;;;;5073605;28;20180;-70
2022/09/04 11:04:48;;;;;;;1.58;1.08;;;;;;;;;;5055208;28;20406;-70
2022/09/04 11:07:23;;;;;;;1.27;1.15;;;;;;;;;;5068160;28;20043;-70
2022/09/04 11:10:07;;;;;;;1.60;0.90;;;;;;;;;;5065774;28;20135;-70
2022/09/04 11:12:56;;;;;;;1.00;0.90;;;;;;;;;;5081404;28;20040;-69
2022/09/04 11:15:39;;;;;;;1.33;0.90;;;;;;;;;;5046973;28;20041;-70
2022/09/04 11:18:27;;;;;;;1.58;0.90;;;;;;;;;;5048056;28;20103;-70
2022/09/04 11:21:15;;;;;;;1.35;1.00;;;;;;;;;;5047648;28;20040;-70
2022/09/04 11:24:12;;;;;;;1.17;1.10;;;;;;;;;;5092443;28;20048;-70
2022/09/04 11:27:14;;;;;;;1.73;1.10;;;;;;;;;;5048113;28;20064;-70
2022/09/04 11:30:04;;;;;;;2.90;1.27;;;;;;;;;;5042525;28;20519;-69
2022/09/04 11:32:52;;;;;;;1.02;0.90;;;;;;;;;;5050898;28;20376;-70
2022/09/04 11:36:05;;;;;;;1.20;0.80;;;;;;;;;;5085548;28;20040;-72
2022/09/04 11:38:43;;;;;;;0.80;0.80;;;;;;;;;;5084209;28;20051;-72
2022/09/04 11:41:27;;;;;;;1.05;0.82;;;;;;;;;;5087570;28;20491;-70
2022/09/04 11:43:55;;;;;;;0.95;0.95;;;;;;;;;;5061216;28;20047;-72
2022/09/04 11:47:00;;;;;;;1.65;0.70;;;;;;;;;;5072922;28;20043;-68
2022/09/04 11:50:04;;;;;;;3.17;1.00;;;;;;;;;;5087134;28;20074;-71
2022/09/04 11:52:45;;;;;;;1.35;0.70;;;;;;;;;;5045126;28;20057;-72
2022/09/04 11:55:27;;;;;;;2.50;1.08;;;;;;;;;;5020418;28;20145;-71
2022/09/04 11:58:35;;;;;;;1.00;0.90;;;;;;;;;;5041919;28;20109;-72
2022/09/04 12:01:25;;;;;;;0.93;0.90;;;;;;;;;;5054756;28;20064;-74
2022/09/04 12:04:10;;;;;;;1.13;1.02;;;;;;;;;;5059860;28;20049;-74
2022/09/04 12:06:43;;;;;;;1.50;1.10;;;;;;;;;;5059969;28;20492;-73
2022/09/04 12:09:42;;;;;;;1.33;0.90;;;;;;;;;;5076470;28;20091;-73
2022/09/04 12:12:39;;;;;;;1.23;1.10;;;;;;;;;;5070127;28;20072;-73
2022/09/04 12:15:43;;;;;;;0.80;0.80;;;;;;;;;;5072325;28;20750;-74
2022/09/04 12:18:32;;;;;;;1.20;1.10;;;;;;;;;;5077961;28;20408;-72
2022/09/04 12:21:17;;;;;;;2.45;1.08;;;;;;;;;;5064681;28;20155;-72
2022/09/04 12:24:19;;;;;;;0.80;0.80;;;;;;;;;;5062311;28;20095;-71
2022/09/04 12:27:04;;;;;;;1.15;1.05;;;;;;;;;;5063531;28;20131;-73
2022/09/04 12:29:59;;;;;;;7.72;1.30;;;;;;;;;;5074575;28;20048;-73
2022/09/04 12:32:35;;;;;;;1.23;1.00;;;;;;;;;;5068016;28;20047;-72
2022/09/04 12:35:41;;;;;;;2.97;1.20;;;;;;;;;;5067308;28;20045;-71
2022/09/04 12:38:16;;;;;;;1.98;1.20;;;;;;;;;;5040940;28;20148;-72
2022/09/04 12:40:55;;;;;;;1.77;1.00;;;;;;;;;;5070963;28;20041;-72
2022/09/04 12:43:38;;;;;;;1.40;1.30;;;;;;;;;;5069868;28;20067;-72
2022/09/04 12:46:23;;;;;;;1.95;1.40;;;;;;;;;;5071098;28;20044;-72
2022/09/04 12:49:00;;;;;;;2.35;1.30;;;;;;;;;;5075569;28;20059;-72
2022/09/04 12:51:36;;;;;;;1.52;1.40;;;;;;;;;;5069692;28;20059;-72
2022/09/04 12:54:47;;;;;;;1.48;1.38;;;;;;;;;;5068747;28;20429;-72
2022/09/04 12:57:32;;;;;;;1.80;1.00;;;;;;;;;;5008658;28;20045;-71
2022/09/04 13:00:07;;;;;;;1.98;1.23;;;;;;;;;;5038749;28;20052;-71
2022/09/04 13:03:05;;;;;;;3.60;1.60;;;;;;;;;;5066457;28;20049;-70
2022/09/04 13:05:44;;;;;;;1.38;1.00;;;;;;;;;;5068596;28;20052;-71
2022/09/04 13:08:17;;;;;;;4.97;0.95;;;;;;;;;;5077065;27;20037;-70
2022/09/04 13:11:01;;;;;;;1.58;1.27;;;;;;;;;;5091598;27;20051;-69
2022/09/04 13:13:41;;;;;;;1.00;0.90;;;;;;;;;;5091541;27;20123;-69
2022/09/04 13:16:26;;;;;;;2.58;1.13;;;;;;;;;;5082457;28;20059;-69
2022/09/04 13:19:16;;;;;;;3.42;0.90;;;;;;;;;;5072126;28;20123;-70
2022/09/04 13:22:25;;;;;;;1.10;0.95;;;;;;;;;;5085862;27;20043;-69
2022/09/04 13:25:14;;;;;;;1.00;0.90;;;;;;;;;;5066603;28;20040;-69
2022/09/04 13:27:56;;;;;;;2.92;1.10;;;;;;;;;;5067179;28;20040;-70
2022/09/04 13:30:24;;;;;;;1.65;1.10;;;;;;;;;;5073813;28;20074;-70
2022/09/04 13:32:55;;;;;;;2.50;0.93;;;;;;;;;;5088456;27;20259;-71
2022/09/04 13:35:42;;;;;;;9.10;4.95;;;;;;;;;;5091038;27;20093;-73
2022/09/04 13:38:32;;;;;;;2.50;1.15;;;;;;;;;;5075362;28;20124;-71
2022/09/04 13:41:25;;;;;;;1.00;0.90;;;;;;;;;;5061630;28;20154;-71
2022/09/04 13:44:26;;;;;;;1.60;1.13;;;;;;;;;;5070338;28;20052;-72
2022/09/04 13:47:10;;;;;;;1.70;1.07;;;;;;;;;;5025022;28;20044;-70
2022/09/04 13:49:44;;;;;;;1.48;0.95;;;;;;;;;;5066910;28;20352;-71
2022/09/04 13:52:16;;;;;;;1.35;0.90;;;;;;;;;;5079057;28;20316;-71
2022/09/04 13:54:47;;;;;;;1.52;1.17;;;;;;;;;;5077740;28;20048;-73
2022/09/04 13:57:16;;;;;;;1.27;1.05;;;;;;;;;;5068214;28;20484;-72
2022/09/04 13:59:48;;;;;;;1.92;0.95;;;;;;;;;;5067115;28;20076;-72
2022/09/04 14:02:24;;;;;;;1.42;1.00;;;;;;;;;;5074399;28;20045;-72
2022/09/04 14:04:59;;;;;;;0.82;0.82;;;;;;;;;;5083553;28;20044;-71
2022/09/04 14:07:34;;;;;;;3.70;1.08;;;;;;;;;;5068421;28;20386;-72
2022/09/04 14:10:03;;;;;;;2.30;0.80;;;;;;;;;;5049391;28;20056;-71
2022/09/04 14:12:32;;;;;;;0.90;0.80;;;;;;;;;;5066607;28;20128;-71
2022/09/04 14:15:23;;;;;;;0.77;0.77;;;;;;;;;;5085764;28;20048;-71
2022/09/04 14:18:03;;;;;;;2.33;1.33;;;;;;;;;;5029763;28;20353;-71
2022/09/04 14:20:56;;;;;;;1.60;1.20;;;;;;;;;;5049013;28;20094;-71
2022/09/04 14:23:27;;;;;;;2.25;1.05;;;;;;;;;;5048609;28;20493;-72
2022/09/04 14:26:11;;;;;;;4.13;0.85;;;;;;;;;;5084598;28;20051;-71
2022/09/04 14:28:52;;;;;;;1.55;0.90;;;;;;;;;;5048275;28;20098;-71
2022/09/04 14:31:24;;;;;;;;;;;;;;;;;;5067217;28;20049;-71
2022/09/04 14:34:01;;;;;;;1.80;1.10;;;;;;;;;;5065219;28;19916;-71
2022/09/04 14:36:55;;;;;;;0.85;0.85;;;;;;;;;;5079649;28;20139;-72
2022/09/04 14:39:39;;;;;;;5.47;1.10;;;;;;;;;;5071780;28;20056;-72
2022/09/04 14:42:22;;;;;;;2.33;1.00;;;;;;;;;;5069018;28;20044;-71
2022/09/04 14:44:50;;;;;;;2.13;1.23;;;;;;;;;;5067175;28;20044;-71
2022/09/04 14:47:29;;;;;;;3.55;1.20;;;;;;;;;;5079172;28;20093;-71
2022/09/04 14:49:56;;;;;;;1.27;1.20;;;;;;;;;;5085578;28;20055;-72
2022/09/04 14:52:27;;;;;;;1.30;0.90;;;;;;;;;;5088987;28;20043;-72
2022/09/04 14:54:56;;;;;;;1.52;1.00;;;;;;;;;;5087832;28;20052;-73
2022/09/04 14:57:54;;;;;;;2.80;1.10;;;;;;;;;;5081384;28;20044;-72
2022/09/04 15:00:20;;;;;;;1.10;1.00;;;;;;;;;;5081888;28;20071;-72
2022/09/04 15:03:14;;;;;;;0.75;0.70;;;;;;;;;;5048369;28;20044;-72
2022/09/04 15:05:56;;;;;;;1.63;1.00;;;;;;;;;;5047016;28;20099;-72
2022/09/04 15:08:32;;;;;;;2.80;0.95;;;;;;;;;;5062442;28;20047;-71
2022/09/04 15:11:03;;;;;;;2.30;0.88;;;;;;;;;;5088748;28;20690;-71
2022/09/04 15:13:30;;;;;;;2.22;1.45;;;;;;;;;;5088036;28;20064;-72
2022/09/04 15:16:27;;;;;;;7.95;1.33;;;;;;;;;;5073536;28;20462;-71
2022/09/04 15:19:19;;;;;;;2.05;1.60;;;;;;;;;;5059874;28;20129;-72
2022/09/04 15:22:09;;;;;;;1.40;1.23;;;;;;;;;;5076531;28;20047;-72
2022/09/04 15:24:47;;;;;;;1.70;1.00;;;;;;;;;;5087432;28;20077;-72
2022/09/04 15:27:27;;;;;;;2.00;1.20;;;;;;;;;;5086604;28;20465;-72
2022/09/04 15:29:52;;;;;;;3.03;1.10;;;;;;;;;;5029478;28;20051;-71
2022/09/04 15:32:20;;;;;;;3.28;1.00;;;;;;;;;;5072355;28;20044;-72
2022/09/04 15:34:45;;;;;;;1.40;1.00;;;;;;;;;;5087735;28;21161;-72
2022/09/04 15:37:25;;;;;;;1.52;1.00;;;;;;;;;;5086555;28;20052;-71
2022/09/04 15:40:10;;;;;;;1.10;1.00;;;;;;;;;;5066781;28;20048;-71
2022/09/04 15:42:45;;;;;;;3.90;0.90;;;;;;;;;;5080932;28;20395;-72
2022/09/04 15:45:46;;;;;;;1.80;0.88;;;;;;;;;;5085214;28;20481;-72
2022/09/04 15:48:26;;;;;;;2.38;1.00;;;;;;;;;;5064109;22;20060;-68
2022/09/04 15:51:17;;;;;;;4.17;1.20;;;;;;;;;;5071368;28;20052;-70
2022/09/04 15:54:20;;;;;;;1.38;1.02;;;;;;;;;;5064876;28;20052;-68
2022/09/04 15:56:51;;;;;;;2.00;1.05;;;;;;;;;;5050650;28;20561;-71
2022/09/04 15:59:34;;;;;;;1.77;1.10;;;;;;;;;;5051443;28;20120;-68
2022/09/04 16:02:11;;;;;;;0.95;0.82;;;;;;;;;;5054737;28;20052;-68
2022/09/04 16:04:48;;;;;;;3.40;0.80;;;;;;;;;;5064839;28;20039;-68
2022/09/04 16:07:33;;;;;;;0.70;0.70;;;;;;;;;;5075884;28;20049;-68
2022/09/04 16:10:13;;;;;;;0.88;0.80;;;;;;;;;;5038343;28;20057;-69
2022/09/04 16:13:06;;;;;;;0.80;0.80;;;;;;;;;;5051554;28;20073;-70
2022/09/04 16:15:39;;;;;;;3.80;0.80;;;;;;;;;;5077161;28;20051;-70
2022/09/04 16:18:45;;;;;;;0.90;0.90;;;;;;;;;;5053549;28;20053;-67
2022/09/04 16:21:33;;;;;;;1.90;0.90;;;;;;;;;;5061459;28;20075;-69
2022/09/04 16:24:12;;;;;;;2.67;1.02;;;;;;;;;;5046375;28;20547;-69
2022/09/04 16:26:38;;;;;;;2.72;0.98;;;;;;;;;;5069470;28;20481;-69